createdAt,value
2019-03-31T00:05:02.936Z,19.07
2019-03-31T00:08:24.803Z,25.23
2019-03-31T00:10:56.946Z,16.73
2019-03-31T00:13:58.784Z,24.97
2019-03-31T00:16:32.950Z,21.07
2019-03-31T00:19:24.112Z,22.73
2019-03-31T00:22:15.301Z,15.97
2019-03-31T00:25:17.479Z,29.33
2019-03-31T00:28:13.419Z,31.10
2019-03-31T00:33:48.125Z,36.50
2019-03-31T00:36:39.330Z,21.43
2019-03-31T00:39:49.292Z,21.67
2019-03-31T00:42:21.089Z,38.40
2019-03-31T00:45:12.256Z,25.90
2019-03-31T00:56:53.994Z,17.87
2019-03-31T00:59:56.082Z,32.10
2019-03-31T01:02:58.680Z,23.20
2019-03-31T01:05:51.121Z,14.40
2019-03-31T01:08:35.662Z,26.27
2019-03-31T01:14:29.762Z,19.67
2019-03-31T01:34:35.241Z,22.43
2019-03-31T01:46:16.321Z,17.80
2019-03-31T01:51:46.732Z,19.63
2019-03-31T01:57:46.728Z,18.07
2019-03-31T02:03:51.458Z,17.53
2019-03-31T02:06:34.812Z,27.13
2019-03-31T02:17:44.580Z,20.30
2019-03-31T02:21:13.632Z,20.40
2019-03-31T02:24:16.393Z,24.03
2019-03-31T02:29:35.608Z,18.90
2019-03-31T02:38:27.619Z,19.00
2019-03-31T02:41:10.382Z,18.43
2019-03-31T02:44:05.088Z,26.20
2019-03-31T02:46:56.355Z,20.50
2019-03-31T02:49:47.534Z,24.23
2019-03-31T02:52:38.677Z,19.70
2019-03-31T02:55:41.321Z,25.53
2019-03-31T02:58:44.465Z,20.30
2019-03-31T03:01:47.884Z,22.57
2019-03-31T03:10:41.664Z,18.83
2019-03-31T03:19:29.363Z,30.03
2019-03-31T03:22:20.598Z,27.80
2019-03-31T03:25:56.370Z,24.17
2019-03-31T03:31:20.156Z,21.60
2019-03-31T03:34:11.360Z,24.60
2019-03-31T03:37:02.976Z,21.87
2019-03-31T03:40:05.196Z,23.63
2019-03-31T03:42:38.939Z,20.37
2019-03-31T03:45:37.660Z,21.60
2019-03-31T03:48:09.447Z,21.53
2019-03-31T03:51:00.605Z,23.67
2019-03-31T03:56:37.028Z,25.33
2019-03-31T03:59:47.004Z,25.00
2019-03-31T04:02:38.177Z,26.90
2019-03-31T04:08:37.464Z,25.90
2019-03-31T04:11:31.442Z,26.63
2019-03-31T04:14:22.653Z,25.73
2019-03-31T04:17:13.818Z,24.00
2019-03-31T04:25:53.961Z,25.03
2019-03-31T04:28:27.239Z,24.80
2019-03-31T04:31:29.812Z,25.80
2019-03-31T04:34:02.141Z,23.57
2019-03-31T04:42:24.101Z,25.50
2019-03-31T04:48:23.949Z,20.87
2019-03-31T04:51:26.548Z,22.80
2019-03-31T04:53:59.201Z,22.13
2019-03-31T04:56:52.105Z,24.33
2019-03-31T04:59:54.319Z,24.63
2019-03-31T05:05:22.978Z,31.47
2019-03-31T05:10:48.280Z,30.50
2019-03-31T05:13:39.415Z,25.07
2019-03-31T05:16:30.606Z,26.70
2019-03-31T05:22:06.349Z,26.00
2019-03-31T05:27:42.480Z,27.50
2019-03-31T05:30:38.229Z,26.83
2019-03-31T05:33:34.303Z,46.33
2019-03-31T05:41:37.960Z,32.30
2019-03-31T05:50:16.306Z,32.30
2019-03-31T05:53:07.457Z,31.77
2019-03-31T05:56:09.247Z,31.73
2019-03-31T05:58:53.314Z,31.83
2019-03-31T06:04:09.459Z,32.13
2019-03-31T06:07:00.655Z,29.67
2019-03-31T06:12:36.619Z,23.60
2019-03-31T06:15:39.425Z,26.53
2019-03-31T06:18:13.503Z,28.57
2019-03-31T06:21:34.938Z,29.13
2019-03-31T06:24:08.969Z,32.93
2019-03-31T06:27:18.989Z,28.00
2019-03-31T06:36:18.541Z,22.63
2019-03-31T06:39:09.709Z,27.20
2019-03-31T06:44:55.436Z,27.30
2019-03-31T06:47:38.825Z,37.93
2019-03-31T06:53:39.805Z,24.07
2019-03-31T06:56:35.058Z,24.60
2019-03-31T06:59:09.777Z,25.63
2019-03-31T07:02:19.799Z,33.23
2019-03-31T07:08:29.145Z,32.37
2019-03-31T07:13:49.055Z,27.23
2019-03-31T07:16:40.210Z,34.40
2019-03-31T07:19:31.372Z,39.07
2019-03-31T07:28:23.560Z,23.73
2019-03-31T07:31:14.715Z,26.07
2019-03-31T07:34:26.200Z,23.47
2019-03-31T07:40:49.761Z,22.37
2019-03-31T07:46:26.019Z,18.90
2019-03-31T07:49:17.257Z,21.77
2019-03-31T07:52:19.410Z,19.73
2019-03-31T07:57:36.741Z,27.90
2019-03-31T08:00:39.682Z,17.43
2019-03-31T08:03:13.090Z,21.03
2019-03-31T08:08:53.394Z,21.80
2019-03-31T08:14:46.962Z,19.90
2019-03-31T08:17:49.628Z,19.67
2019-03-31T08:20:42.853Z,18.40
2019-03-31T08:23:45.266Z,17.33
2019-03-31T08:26:17.019Z,21.33
2019-03-31T08:29:26.992Z,19.43
2019-03-31T08:32:28.433Z,20.07
2019-03-31T08:38:36.527Z,19.63
2019-03-31T08:41:29.189Z,19.40
2019-03-31T08:44:39.184Z,17.53
2019-03-31T08:59:10.096Z,19.07
2019-03-31T09:02:20.193Z,17.73
2019-03-31T09:11:40.307Z,18.37
2019-03-31T09:14:50.279Z,20.47
2019-03-31T09:17:41.429Z,18.87
2019-03-31T09:20:34.459Z,18.30
2019-03-31T09:23:17.044Z,17.87
2019-03-31T09:26:10.175Z,27.17
2019-03-31T09:32:07.317Z,19.23
2019-03-31T09:43:27.567Z,22.63
2019-03-31T09:46:00.475Z,22.30
2019-03-31T09:48:51.603Z,22.50
2019-03-31T09:51:42.950Z,17.70
2019-03-31T09:54:34.154Z,14.47
2019-03-31T09:57:25.266Z,17.90
2019-03-31T10:00:40.148Z,17.50
2019-03-31T10:03:23.778Z,15.90
2019-03-31T10:06:09.963Z,13.17
2019-03-31T10:11:58.064Z,20.17
2019-03-31T10:14:30.614Z,17.60
2019-03-31T10:20:42.848Z,20.93
2019-03-31T10:23:14.653Z,19.17
2019-03-31T10:26:31.138Z,13.57
2019-03-31T10:29:07.084Z,13.10
2019-03-31T10:31:41.569Z,14.83
2019-03-31T10:34:32.859Z,14.90
2019-03-31T10:37:35.336Z,22.93
2019-03-31T10:43:55.411Z,15.73
2019-03-31T10:46:47.529Z,16.10
2019-03-31T10:49:38.706Z,14.00
2019-03-31T10:52:30.024Z,14.80
2019-03-31T10:58:22.858Z,16.70
2019-03-31T11:00:55.064Z,17.60
2019-03-31T11:04:06.241Z,16.30
2019-03-31T11:13:55.020Z,15.17
2019-03-31T11:16:59.368Z,14.93
2019-03-31T11:19:44.653Z,20.93
2019-03-31T11:22:37.790Z,11.87
2019-03-31T11:26:08.305Z,15.20
2019-03-31T11:29:10.626Z,13.20
2019-03-31T11:32:06.093Z,11.90
2019-03-31T11:35:08.543Z,11.87
2019-03-31T11:40:39.534Z,19.83
2019-03-31T11:46:08.747Z,18.13
2019-03-31T11:48:56.625Z,14.10
2019-03-31T11:57:22.157Z,14.63
2019-03-31T11:59:54.490Z,15.53
2019-03-31T12:02:46.078Z,14.10
2019-03-31T12:06:15.690Z,14.27
2019-03-31T12:09:08.063Z,14.90
2019-03-31T12:17:30.023Z,15.90
2019-03-31T12:20:20.151Z,13.90
2019-03-31T12:23:14.748Z,12.50
2019-03-31T12:26:16.491Z,15.93
2019-03-31T12:29:12.106Z,10.60
2019-03-31T12:35:02.454Z,12.93
2019-03-31T12:37:47.396Z,13.33
2019-03-31T12:40:58.814Z,13.77
2019-03-31T12:43:30.645Z,10.80
2019-03-31T12:46:13.012Z,9.90
2019-03-31T12:48:57.231Z,12.77
2019-03-31T12:51:42.248Z,11.00
2019-03-31T13:06:26.341Z,11.60
2019-03-31T13:08:58.445Z,10.60
2019-03-31T13:14:32.510Z,11.90
2019-03-31T13:20:10.158Z,12.63
2019-03-31T13:26:17.448Z,11.00
2019-03-31T13:29:02.113Z,13.97
2019-03-31T13:31:47.637Z,15.53
2019-03-31T13:34:38.431Z,16.30
2019-03-31T13:37:39.425Z,15.27
2019-03-31T13:43:52.061Z,13.30
2019-03-31T13:49:26.860Z,10.97
2019-03-31T13:55:03.681Z,10.83
2019-03-31T13:58:14.258Z,10.30
2019-03-31T14:01:08.067Z,10.93
2019-03-31T14:03:42.504Z,10.53
2019-03-31T14:06:52.505Z,10.80
2019-03-31T14:09:54.204Z,10.77
2019-03-31T14:15:19.175Z,10.20
2019-03-31T14:20:54.095Z,14.13
2019-03-31T14:23:38.431Z,12.90
2019-03-31T14:26:10.759Z,12.80
2019-03-31T14:29:13.191Z,11.40
2019-03-31T14:34:30.533Z,9.47
2019-03-31T14:37:33.465Z,9.07
2019-03-31T14:40:06.760Z,8.83
2019-03-31T14:42:57.998Z,10.37
2019-03-31T14:49:25.991Z,16.63
2019-03-31T14:52:27.338Z,10.93
2019-03-31T14:55:15.055Z,9.73
2019-03-31T14:58:26.470Z,17.53
2019-03-31T15:04:16.822Z,10.20
2019-03-31T15:06:48.917Z,9.33
2019-03-31T15:09:50.895Z,11.03
2019-03-31T15:12:25.033Z,11.97
2019-03-31T15:15:15.426Z,8.83
2019-03-31T15:39:12.329Z,8.43
2019-03-31T15:44:55.375Z,10.13
2019-03-31T15:47:40.125Z,10.03
2019-03-31T15:50:12.131Z,10.00
2019-03-31T15:53:23.350Z,10.03
2019-03-31T15:56:15.909Z,8.57
2019-03-31T15:59:08.172Z,9.83
2019-03-31T16:01:59.372Z,16.93
2019-03-31T16:04:49.992Z,9.97
2019-03-31T16:07:41.350Z,10.73
2019-03-31T16:10:43.704Z,9.50
2019-03-31T16:13:16.544Z,8.70
2019-03-31T16:16:07.265Z,12.93
2019-03-31T16:18:58.146Z,10.17
2019-03-31T16:27:21.681Z,8.80
2019-03-31T16:30:11.744Z,11.87
2019-03-31T16:33:22.423Z,10.33
2019-03-31T16:36:13.327Z,8.80
2019-03-31T16:39:16.021Z,9.60
2019-03-31T16:41:49.861Z,11.20
2019-03-31T16:47:44.904Z,11.87
2019-03-31T16:50:37.281Z,9.97
2019-03-31T16:55:55.893Z,9.67
2019-03-31T16:58:46.557Z,12.13
2019-03-31T17:01:37.160Z,9.50
2019-03-31T17:07:15.627Z,14.90
2019-03-31T17:13:12.105Z,16.77
2019-03-31T17:16:02.717Z,12.63
2019-03-31T17:18:53.310Z,12.43
2019-03-31T17:21:44.190Z,12.77
2019-03-31T17:27:23.968Z,10.13
2019-03-31T17:30:14.659Z,14.60
2019-03-31T17:36:40.205Z,11.87
2019-03-31T17:41:58.849Z,16.50
2019-03-31T17:47:39.566Z,14.80
2019-03-31T18:07:03.200Z,14.03
2019-03-31T18:09:53.852Z,11.20
2019-03-31T18:13:03.575Z,15.80
2019-03-31T18:21:40.426Z,10.10
2019-03-31T18:24:31.093Z,11.67
2019-03-31T18:33:23.397Z,13.10
2019-03-31T18:35:54.640Z,15.03
2019-03-31T18:38:45.300Z,15.13
2019-03-31T18:41:36.255Z,13.30
2019-03-31T18:47:11.530Z,21.80
2019-03-31T18:49:42.760Z,22.63
2019-03-31T18:59:34.296Z,16.23
2019-03-31T19:02:49.482Z,23.77
2019-03-31T19:09:09.414Z,20.63
2019-03-31T19:12:18.948Z,17.30
2019-03-31T19:18:29.911Z,15.97
2019-03-31T19:21:39.564Z,15.63
2019-03-31T19:30:19.336Z,21.20
2019-03-31T19:33:48.431Z,17.50
2019-03-31T19:40:01.681Z,17.33
2019-03-31T19:43:30.537Z,16.03
2019-03-31T19:46:20.745Z,17.57
2019-03-31T19:49:32.292Z,26.00
2019-03-31T19:55:25.537Z,14.47
2019-03-31T19:58:55.061Z,16.87
2019-03-31T20:02:04.596Z,16.10
2019-03-31T20:11:02.589Z,14.37
2019-03-31T20:13:54.702Z,21.00
2019-03-31T20:19:47.043Z,13.33
2019-03-31T20:22:56.588Z,15.77
2019-03-31T20:26:06.105Z,22.90
2019-03-31T20:28:57.696Z,14.43
2019-03-31T20:32:07.214Z,21.60
2019-03-31T20:44:47.331Z,19.47
2019-03-31T20:50:18.029Z,20.70
2019-03-31T20:53:00.195Z,28.07
2019-03-31T20:55:50.783Z,25.10
2019-03-31T20:58:42.252Z,23.17
2019-03-31T21:01:32.923Z,22.83
2019-03-31T21:04:23.529Z,23.20
2019-03-31T21:07:14.203Z,25.77
2019-03-31T21:09:45.574Z,27.73
2019-03-31T21:12:36.153Z,27.37
2019-03-31T21:15:45.935Z,23.00
2019-03-31T21:26:48.282Z,30.10
2019-03-31T21:29:52.139Z,38.80
2019-03-31T21:32:35.754Z,34.90
2019-03-31T21:35:09.101Z,31.13
2019-03-31T21:38:19.211Z,39.30
2019-03-31T21:41:09.914Z,40.53
2019-03-31T21:46:47.007Z,30.23
2019-03-31T21:52:40.873Z,35.83
2019-03-31T21:55:43.028Z,34.57
2019-03-31T21:58:17.311Z,36.63
2019-03-31T22:01:08.031Z,31.83
2019-03-31T22:03:58.676Z,34.70
2019-03-31T22:12:21.357Z,43.67
2019-03-31T22:25:03.394Z,45.03
2019-03-31T22:28:13.550Z,42.80
2019-03-31T22:31:23.410Z,39.60
2019-03-31T22:34:14.218Z,40.53
2019-03-31T22:43:16.331Z,43.77
2019-03-31T22:46:18.805Z,42.33
2019-03-31T22:48:51.540Z,35.67
2019-03-31T22:54:33.514Z,43.50
2019-03-31T23:03:19.515Z,40.50
2019-03-31T23:06:31.151Z,46.03
2019-03-31T23:09:23.769Z,39.80
2019-03-31T23:12:14.422Z,37.23
2019-03-31T23:14:57.450Z,36.13
2019-03-31T23:17:30.507Z,41.10
2019-03-31T23:23:33.574Z,41.57
2019-03-31T23:26:06.661Z,40.53
2019-03-31T23:28:57.469Z,37.83
2019-03-31T23:35:03.125Z,39.17
2019-03-31T23:37:43.512Z,35.67
2019-03-31T23:40:53.293Z,41.60
2019-03-31T23:43:43.961Z,36.87
2019-03-31T23:46:34.601Z,39.10
2019-03-31T23:49:39.318Z,39.07
2019-03-31T23:52:31.855Z,44.60
